Terminal Aerodrome Forecast
Issued by NWS

Home | Current Version | Previous Version | Text Only | Print | Product List | Glossary On
Versions: 1 2 3 4 5 6 7 8 9 10 11 12 13 14 15 16
000
FTUS42 KRAH 191126
TAFINT
TAF
KINT 191126Z 1912/2012 05008KT P6SM -RA FEW008 BKN100 OVC110
     FM191600 06012G20KT P6SM -RADZ SCT009 BKN015 OVC050
     FM192100 05010KT P6SM OVC060=

USA.gov is the U.S. government's official web portal to all federal, state and local government web resources and services.